sensor_id;sensor_type;location;lat;lon;timestamp;P1;durP1;ratioP1;P2;durP2;ratioP2
12267;SDS011;6196;48.398;11.736;2023-04-03T00:01:20;4.40;;;3.33;;
12267;SDS011;6196;48.398;11.736;2023-04-03T00:03:47;3.80;;;3.50;;
12267;SDS011;6196;48.398;11.736;2023-04-03T00:06:14;4.30;;;3.77;;
12267;SDS011;6196;48.398;11.736;2023-04-03T00:08:41;6.10;;;3.83;;
12267;SDS011;6196;48.398;11.736;2023-04-03T00:11:08;3.73;;;3.40;;
12267;SDS011;6196;48.398;11.736;2023-04-03T00:13:36;3.90;;;3.30;;
12267;SDS011;6196;48.398;11.736;2023-04-03T00:16:04;5.17;;;3.80;;
12267;SDS011;6196;48.398;11.736;2023-04-03T00:18:31;4.60;;;3.93;;
12267;SDS011;6196;48.398;11.736;2023-04-03T00:20:58;4.57;;;3.60;;
12267;SDS011;6196;48.398;11.736;2023-04-03T00:23:25;4.37;;;3.60;;
12267;SDS011;6196;48.398;11.736;2023-04-03T00:25:52;4.30;;;3.63;;
12267;SDS011;6196;48.398;11.736;2023-04-03T00:28:20;5.23;;;3.40;;
12267;SDS011;6196;48.398;11.736;2023-04-03T00:30:50;3.00;;;2.80;;
12267;SDS011;6196;48.398;11.736;2023-04-03T00:33:18;3.67;;;3.37;;
12267;SDS011;6196;48.398;11.736;2023-04-03T00:35:50;4.60;;;3.33;;
12267;SDS011;6196;48.398;11.736;2023-04-03T00:38:17;4.10;;;3.53;;
12267;SDS011;6196;48.398;11.736;2023-04-03T00:40:45;3.43;;;3.13;;
12267;SDS011;6196;48.398;11.736;2023-04-03T00:43:15;4.77;;;3.37;;
12267;SDS011;6196;48.398;11.736;2023-04-03T00:45:49;4.30;;;3.10;;
12267;SDS011;6196;48.398;11.736;2023-04-03T00:48:26;4.30;;;2.93;;
12267;SDS011;6196;48.398;11.736;2023-04-03T00:50:58;3.37;;;3.07;;
12267;SDS011;6196;48.398;11.736;2023-04-03T00:53:28;3.27;;;3.00;;
12267;SDS011;6196;48.398;11.736;2023-04-03T00:56:19;5.53;;;3.03;;
12267;SDS011;6196;48.398;11.736;2023-04-03T00:59:01;3.67;;;2.90;;
12267;SDS011;6196;48.398;11.736;2023-04-03T01:01:43;3.20;;;2.73;;
12267;SDS011;6196;48.398;11.736;2023-04-03T01:04:30;3.00;;;2.63;;
12267;SDS011;6196;48.398;11.736;2023-04-03T01:07:10;3.37;;;2.97;;
12267;SDS011;6196;48.398;11.736;2023-04-03T01:09:41;3.33;;;2.80;;
12267;SDS011;6196;48.398;11.736;2023-04-03T01:12:13;3.57;;;2.80;;
12267;SDS011;6196;48.398;11.736;2023-04-03T01:14:44;3.50;;;3.20;;
12267;SDS011;6196;48.398;11.736;2023-04-03T01:17:32;4.50;;;2.90;;
12267;SDS011;6196;48.398;11.736;2023-04-03T01:28:12;2.70;;;2.40;;
12267;SDS011;6196;48.398;11.736;2023-04-03T01:31:20;2.80;;;2.50;;
12267;SDS011;6196;48.398;11.736;2023-04-03T01:33:53;2.47;;;2.27;;
12267;SDS011;6196;48.398;11.736;2023-04-03T01:36:22;3.07;;;2.53;;
12267;SDS011;6196;48.398;11.736;2023-04-03T01:38:57;2.63;;;2.43;;
12267;SDS011;6196;48.398;11.736;2023-04-03T01:41:26;2.57;;;2.33;;
12267;SDS011;6196;48.398;11.736;2023-04-03T01:43:53;4.40;;;2.90;;
12267;SDS011;6196;48.398;11.736;2023-04-03T01:46:20;3.93;;;2.90;;
12267;SDS011;6196;48.398;11.736;2023-04-03T01:48:47;3.10;;;2.80;;
12267;SDS011;6196;48.398;11.736;2023-04-03T01:51:15;3.03;;;2.53;;
12267;SDS011;6196;48.398;11.736;2023-04-03T01:53:42;2.87;;;2.67;;
12267;SDS011;6196;48.398;11.736;2023-04-03T01:56:09;3.27;;;2.83;;
12267;SDS011;6196;48.398;11.736;2023-04-03T01:58:36;4.10;;;3.20;;
12267;SDS011;6196;48.398;11.736;2023-04-03T02:01:04;3.17;;;2.63;;
12267;SDS011;6196;48.398;11.736;2023-04-03T02:03:32;3.23;;;2.93;;
12267;SDS011;6196;48.398;11.736;2023-04-03T02:05:59;4.13;;;3.17;;
12267;SDS011;6196;48.398;11.736;2023-04-03T02:08:26;3.70;;;3.17;;
12267;SDS011;6196;48.398;11.736;2023-04-03T02:10:52;3.73;;;3.13;;
12267;SDS011;6196;48.398;11.736;2023-04-03T02:13:19;3.20;;;2.90;;
12267;SDS011;6196;48.398;11.736;2023-04-03T02:15:46;4.00;;;3.20;;
12267;SDS011;6196;48.398;11.736;2023-04-03T02:18:14;3.27;;;2.97;;
12267;SDS011;6196;48.398;11.736;2023-04-03T02:20:41;4.10;;;3.20;;
12267;SDS011;6196;48.398;11.736;2023-04-03T02:23:08;5.37;;;3.03;;
12267;SDS011;6196;48.398;11.736;2023-04-03T02:25:35;3.10;;;2.80;;
12267;SDS011;6196;48.398;11.736;2023-04-03T02:28:04;5.87;;;3.03;;
12267;SDS011;6196;48.398;11.736;2023-04-03T02:30:31;3.80;;;3.03;;
12267;SDS011;6196;48.398;11.736;2023-04-03T02:32:58;4.33;;;2.87;;
12267;SDS011;6196;48.398;11.736;2023-04-03T02:35:26;3.10;;;2.80;;
12267;SDS011;6196;48.398;11.736;2023-04-03T02:37:53;3.40;;;2.67;;
12267;SDS011;6196;48.398;11.736;2023-04-03T02:40:20;4.33;;;2.70;;
12267;SDS011;6196;48.398;11.736;2023-04-03T02:42:46;3.53;;;2.70;;
12267;SDS011;6196;48.398;11.736;2023-04-03T02:45:13;3.23;;;2.93;;
12267;SDS011;6196;48.398;11.736;2023-04-03T02:47:40;4.83;;;2.70;;
12267;SDS011;6196;48.398;11.736;2023-04-03T02:50:07;3.17;;;2.83;;
12267;SDS011;6196;48.398;11.736;2023-04-03T02:52:34;3.53;;;3.23;;
12267;SDS011;6196;48.398;11.736;2023-04-03T02:55:01;3.60;;;3.30;;
12267;SDS011;6196;48.398;11.736;2023-04-03T02:57:28;3.83;;;3.07;;
12267;SDS011;6196;48.398;11.736;2023-04-03T02:59:56;3.30;;;3.00;;
12267;SDS011;6196;48.398;11.736;2023-04-03T03:02:23;3.93;;;3.13;;
12267;SDS011;6196;48.398;11.736;2023-04-03T03:04:50;5.13;;;3.57;;
12267;SDS011;6196;48.398;11.736;2023-04-03T03:07:17;3.20;;;2.90;;
12267;SDS011;6196;48.398;11.736;2023-04-03T03:09:43;3.73;;;3.33;;
12267;SDS011;6196;48.398;11.736;2023-04-03T03:12:10;3.80;;;3.40;;
12267;SDS011;6196;48.398;11.736;2023-04-03T03:14:37;3.57;;;3.00;;
12267;SDS011;6196;48.398;11.736;2023-04-03T03:17:04;4.10;;;3.47;;
12267;SDS011;6196;48.398;11.736;2023-04-03T03:19:31;6.00;;;3.10;;
12267;SDS011;6196;48.398;11.736;2023-04-03T03:21:58;4.23;;;3.43;;
12267;SDS011;6196;48.398;11.736;2023-04-03T03:24:25;4.53;;;3.50;;
12267;SDS011;6196;48.398;11.736;2023-04-03T03:26:51;5.67;;;3.60;;
12267;SDS011;6196;48.398;11.736;2023-04-03T03:29:18;3.83;;;3.43;;
12267;SDS011;6196;48.398;11.736;2023-04-03T03:31:45;4.17;;;3.40;;
12267;SDS011;6196;48.398;11.736;2023-04-03T03:34:12;3.90;;;3.17;;
12267;SDS011;6196;48.398;11.736;2023-04-03T03:36:39;4.17;;;3.20;;
12267;SDS011;6196;48.398;11.736;2023-04-03T03:39:06;3.73;;;3.03;;
12267;SDS011;6196;48.398;11.736;2023-04-03T03:41:33;5.03;;;3.50;;
12267;SDS011;6196;48.398;11.736;2023-04-03T03:44:00;3.57;;;3.20;;
12267;SDS011;6196;48.398;11.736;2023-04-03T03:46:27;4.17;;;3.77;;
12267;SDS011;6196;48.398;11.736;2023-04-03T03:48:54;3.70;;;2.90;;
12267;SDS011;6196;48.398;11.736;2023-04-03T03:51:21;4.93;;;3.50;;
12267;SDS011;6196;48.398;11.736;2023-04-03T03:53:48;4.80;;;4.07;;
12267;SDS011;6196;48.398;11.736;2023-04-03T03:56:15;5.37;;;3.40;;
12267;SDS011;6196;48.398;11.736;2023-04-03T03:58:41;4.47;;;3.43;;
12267;SDS011;6196;48.398;11.736;2023-04-03T04:01:08;3.83;;;3.53;;
12267;SDS011;6196;48.398;11.736;2023-04-03T04:03:35;5.20;;;3.70;;
12267;SDS011;6196;48.398;11.736;2023-04-03T04:06:03;5.57;;;3.80;;
12267;SDS011;6196;48.398;11.736;2023-04-03T04:08:30;6.63;;;3.47;;
12267;SDS011;6196;48.398;11.736;2023-04-03T04:10:57;4.60;;;3.60;;
12267;SDS011;6196;48.398;11.736;2023-04-03T04:13:24;3.60;;;3.23;;
12267;SDS011;6196;48.398;11.736;2023-04-03T04:15:51;3.77;;;3.40;;
12267;SDS011;6196;48.398;11.736;2023-04-03T04:18:18;3.63;;;3.07;;
12267;SDS011;6196;48.398;11.736;2023-04-03T04:20:46;4.13;;;3.37;;
12267;SDS011;6196;48.398;11.736;2023-04-03T04:23:13;4.00;;;3.60;;
12267;SDS011;6196;48.398;11.736;2023-04-03T04:25:40;4.10;;;3.77;;
12267;SDS011;6196;48.398;11.736;2023-04-03T04:28:07;4.33;;;3.43;;
12267;SDS011;6196;48.398;11.736;2023-04-03T04:30:34;4.13;;;3.40;;
12267;SDS011;6196;48.398;11.736;2023-04-03T04:33:01;4.33;;;3.87;;
12267;SDS011;6196;48.398;11.736;2023-04-03T04:35:28;4.80;;;3.33;;
12267;SDS011;6196;48.398;11.736;2023-04-03T04:37:55;4.03;;;3.63;;
12267;SDS011;6196;48.398;11.736;2023-04-03T04:40:22;5.20;;;3.67;;
12267;SDS011;6196;48.398;11.736;2023-04-03T04:42:49;4.40;;;3.60;;
12267;SDS011;6196;48.398;11.736;2023-04-03T04:45:16;4.93;;;3.33;;
12267;SDS011;6196;48.398;11.736;2023-04-03T04:47:43;3.83;;;3.23;;
12267;SDS011;6196;48.398;11.736;2023-04-03T04:50:10;4.07;;;3.07;;
12267;SDS011;6196;48.398;11.736;2023-04-03T04:52:38;5.57;;;3.40;;
12267;SDS011;6196;48.398;11.736;2023-04-03T04:55:05;4.90;;;3.50;;
12267;SDS011;6196;48.398;11.736;2023-04-03T04:57:32;3.97;;;3.57;;
12267;SDS011;6196;48.398;11.736;2023-04-03T05:00:00;4.87;;;3.80;;
12267;SDS011;6196;48.398;11.736;2023-04-03T05:02:27;4.10;;;3.60;;
12267;SDS011;6196;48.398;11.736;2023-04-03T05:04:54;4.10;;;3.53;;
12267;SDS011;6196;48.398;11.736;2023-04-03T05:07:21;4.40;;;3.90;;
12267;SDS011;6196;48.398;11.736;2023-04-03T05:09:48;4.03;;;3.63;;
12267;SDS011;6196;48.398;11.736;2023-04-03T05:12:16;5.50;;;3.73;;
12267;SDS011;6196;48.398;11.736;2023-04-03T05:14:43;5.00;;;3.60;;
12267;SDS011;6196;48.398;11.736;2023-04-03T05:17:10;5.13;;;3.60;;
12267;SDS011;6196;48.398;11.736;2023-04-03T05:19:37;5.80;;;3.97;;
12267;SDS011;6196;48.398;11.736;2023-04-03T05:22:04;4.77;;;3.73;;
12267;SDS011;6196;48.398;11.736;2023-04-03T05:24:30;4.60;;;4.10;;
12267;SDS011;6196;48.398;11.736;2023-04-03T05:26:57;4.07;;;3.67;;
12267;SDS011;6196;48.398;11.736;2023-04-03T05:29:24;4.53;;;3.53;;
12267;SDS011;6196;48.398;11.736;2023-04-03T05:31:51;4.50;;;3.80;;
12267;SDS011;6196;48.398;11.736;2023-04-03T05:34:18;4.50;;;4.00;;
12267;SDS011;6196;48.398;11.736;2023-04-03T05:36:45;6.60;;;4.50;;
12267;SDS011;6196;48.398;11.736;2023-04-03T05:39:12;4.37;;;3.97;;
12267;SDS011;6196;48.398;11.736;2023-04-03T05:41:39;4.53;;;4.13;;
12267;SDS011;6196;48.398;11.736;2023-04-03T05:44:06;5.63;;;4.03;;
12267;SDS011;6196;48.398;11.736;2023-04-03T05:46:33;6.07;;;4.20;;
12267;SDS011;6196;48.398;11.736;2023-04-03T05:49:00;5.33;;;4.20;;
12267;SDS011;6196;48.398;11.736;2023-04-03T05:51:31;6.00;;;4.63;;
12267;SDS011;6196;48.398;11.736;2023-04-03T05:54:44;6.00;;;4.40;;
12267;SDS011;6196;48.398;11.736;2023-04-03T05:56:54;5.80;;;4.60;;
12267;SDS011;6196;48.398;11.736;2023-04-03T05:59:21;7.87;;;4.60;;
12267;SDS011;6196;48.398;11.736;2023-04-03T06:01:48;5.10;;;4.60;;
12267;SDS011;6196;48.398;11.736;2023-04-03T06:04:15;6.83;;;4.23;;
12267;SDS011;6196;48.398;11.736;2023-04-03T06:06:47;6.87;;;4.90;;
12267;SDS011;6196;48.398;11.736;2023-04-03T06:09:24;6.00;;;5.07;;
12267;SDS011;6196;48.398;11.736;2023-04-03T06:11:55;6.37;;;5.00;;
12267;SDS011;6196;48.398;11.736;2023-04-03T06:14:25;5.47;;;4.60;;
12267;SDS011;6196;48.398;11.736;2023-04-03T06:16:52;6.90;;;5.33;;
12267;SDS011;6196;48.398;11.736;2023-04-03T06:19:20;5.53;;;5.03;;
12267;SDS011;6196;48.398;11.736;2023-04-03T06:21:47;6.67;;;5.07;;
12267;SDS011;6196;48.398;11.736;2023-04-03T06:24:15;5.13;;;4.63;;
12267;SDS011;6196;48.398;11.736;2023-04-03T06:26:43;6.40;;;5.47;;
12267;SDS011;6196;48.398;11.736;2023-04-03T06:29:10;6.87;;;5.00;;
12267;SDS011;6196;48.398;11.736;2023-04-03T06:31:37;7.23;;;5.10;;
12267;SDS011;6196;48.398;11.736;2023-04-03T06:34:04;7.00;;;5.23;;
12267;SDS011;6196;48.398;11.736;2023-04-03T06:36:35;6.50;;;4.70;;
12267;SDS011;6196;48.398;11.736;2023-04-03T06:39:02;5.90;;;4.93;;
12267;SDS011;6196;48.398;11.736;2023-04-03T06:41:29;5.03;;;4.53;;
12267;SDS011;6196;48.398;11.736;2023-04-03T06:43:56;6.50;;;5.03;;
12267;SDS011;6196;48.398;11.736;2023-04-03T06:46:25;5.13;;;4.57;;
12267;SDS011;6196;48.398;11.736;2023-04-03T06:48:53;6.07;;;4.83;;
12267;SDS011;6196;48.398;11.736;2023-04-03T06:51:21;5.57;;;4.80;;
12267;SDS011;6196;48.398;11.736;2023-04-03T06:53:48;5.47;;;4.77;;
12267;SDS011;6196;48.398;11.736;2023-04-03T06:56:17;7.10;;;4.87;;
12267;SDS011;6196;48.398;11.736;2023-04-03T06:58:44;8.57;;;5.20;;
12267;SDS011;6196;48.398;11.736;2023-04-03T07:01:13;6.87;;;4.37;;
12267;SDS011;6196;48.398;11.736;2023-04-03T07:03:41;6.93;;;4.40;;
12267;SDS011;6196;48.398;11.736;2023-04-03T07:06:12;5.97;;;4.70;;
12267;SDS011;6196;48.398;11.736;2023-04-03T07:08:41;5.23;;;4.73;;
12267;SDS011;6196;48.398;11.736;2023-04-03T07:11:08;7.30;;;5.07;;
12267;SDS011;6196;48.398;11.736;2023-04-03T07:13:36;5.03;;;4.47;;
12267;SDS011;6196;48.398;11.736;2023-04-03T07:16:04;5.57;;;4.87;;
12267;SDS011;6196;48.398;11.736;2023-04-03T07:18:32;5.33;;;4.60;;
12267;SDS011;6196;48.398;11.736;2023-04-03T07:20:59;5.90;;;4.60;;
12267;SDS011;6196;48.398;11.736;2023-04-03T07:23:26;6.83;;;4.97;;
12267;SDS011;6196;48.398;11.736;2023-04-03T07:25:54;5.87;;;4.20;;
12267;SDS011;6196;48.398;11.736;2023-04-03T07:28:21;7.47;;;5.13;;
12267;SDS011;6196;48.398;11.736;2023-04-03T07:30:50;5.33;;;4.57;;
12267;SDS011;6196;48.398;11.736;2023-04-03T07:33:29;5.70;;;4.10;;
12267;SDS011;6196;48.398;11.736;2023-04-03T07:35:57;5.97;;;4.40;;
12267;SDS011;6196;48.398;11.736;2023-04-03T07:38:24;4.97;;;4.40;;
12267;SDS011;6196;48.398;11.736;2023-04-03T07:40:51;5.37;;;4.67;;
12267;SDS011;6196;48.398;11.736;2023-04-03T07:43:19;6.27;;;4.70;;
12267;SDS011;6196;48.398;11.736;2023-04-03T07:45:48;6.60;;;4.20;;
12267;SDS011;6196;48.398;11.736;2023-04-03T07:48:20;5.03;;;4.53;;
12267;SDS011;6196;48.398;11.736;2023-04-03T07:50:50;5.47;;;4.50;;
12267;SDS011;6196;48.398;11.736;2023-04-03T07:53:18;5.23;;;4.67;;
12267;SDS011;6196;48.398;11.736;2023-04-03T07:55:47;4.93;;;4.03;;
12267;SDS011;6196;48.398;11.736;2023-04-03T07:58:16;5.93;;;4.70;;
12267;SDS011;6196;48.398;11.736;2023-04-03T08:00:44;7.17;;;4.33;;
12267;SDS011;6196;48.398;11.736;2023-04-03T08:03:12;5.07;;;4.30;;
12267;SDS011;6196;48.398;11.736;2023-04-03T08:05:40;5.53;;;4.40;;
12267;SDS011;6196;48.398;11.736;2023-04-03T08:08:09;6.93;;;3.97;;
12267;SDS011;6196;48.398;11.736;2023-04-03T08:10:38;5.90;;;4.20;;
12267;SDS011;6196;48.398;11.736;2023-04-03T08:13:05;5.93;;;4.67;;
12267;SDS011;6196;48.398;11.736;2023-04-03T08:15:34;4.83;;;4.33;;
12267;SDS011;6196;48.398;11.736;2023-04-03T08:18:01;6.87;;;4.40;;
12267;SDS011;6196;48.398;11.736;2023-04-03T08:20:29;6.07;;;4.10;;
12267;SDS011;6196;48.398;11.736;2023-04-03T08:22:56;4.60;;;3.90;;
12267;SDS011;6196;48.398;11.736;2023-04-03T08:25:23;4.53;;;4.13;;
12267;SDS011;6196;48.398;11.736;2023-04-03T08:27:51;4.47;;;3.70;;
12267;SDS011;6196;48.398;11.736;2023-04-03T08:30:17;4.20;;;3.80;;
12267;SDS011;6196;48.398;11.736;2023-04-03T08:32:44;5.43;;;4.30;;
12267;SDS011;6196;48.398;11.736;2023-04-03T08:35:11;9.90;;;4.40;;
12267;SDS011;6196;48.398;11.736;2023-04-03T08:37:39;6.23;;;4.10;;
12267;SDS011;6196;48.398;11.736;2023-04-03T08:40:07;4.80;;;3.80;;
12267;SDS011;6196;48.398;11.736;2023-04-03T08:45:41;5.27;;;4.07;;
12267;SDS011;6196;48.398;11.736;2023-04-03T08:48:20;5.17;;;4.53;;
12267;SDS011;6196;48.398;11.736;2023-04-03T08:50:58;4.17;;;3.33;;
12267;SDS011;6196;48.398;11.736;2023-04-03T08:53:34;4.07;;;3.70;;
12267;SDS011;6196;48.398;11.736;2023-04-03T08:56:08;4.07;;;3.60;;
12267;SDS011;6196;48.398;11.736;2023-04-03T08:58:44;6.30;;;3.90;;
12267;SDS011;6196;48.398;11.736;2023-04-03T09:01:26;4.60;;;3.60;;
12267;SDS011;6196;48.398;11.736;2023-04-03T09:04:01;4.33;;;3.97;;
12267;SDS011;6196;48.398;11.736;2023-04-03T09:06:35;4.00;;;3.60;;
12267;SDS011;6196;48.398;11.736;2023-04-03T09:09:11;4.40;;;3.50;;
12267;SDS011;6196;48.398;11.736;2023-04-03T09:12:12;4.83;;;3.10;;
12267;SDS011;6196;48.398;11.736;2023-04-03T09:18:02;6.50;;;3.10;;
12267;SDS011;6196;48.398;11.736;2023-04-03T09:21:01;3.70;;;3.00;;
12267;SDS011;6196;48.398;11.736;2023-04-03T09:26:19;3.70;;;2.60;;
12267;SDS011;6196;48.398;11.736;2023-04-03T09:28:53;4.50;;;2.67;;
12267;SDS011;6196;48.398;11.736;2023-04-03T09:31:29;3.73;;;2.93;;
12267;SDS011;6196;48.398;11.736;2023-04-03T09:34:10;4.57;;;2.37;;
12267;SDS011;6196;48.398;11.736;2023-04-03T09:36:53;4.50;;;2.50;;
12267;SDS011;6196;48.398;11.736;2023-04-03T09:39:23;2.90;;;1.90;;
12267;SDS011;6196;48.398;11.736;2023-04-03T09:44:35;3.03;;;2.10;;
12267;SDS011;6196;48.398;11.736;2023-04-03T09:47:23;2.20;;;1.90;;
12267;SDS011;6196;48.398;11.736;2023-04-03T09:52:40;2.27;;;1.87;;
12267;SDS011;6196;48.398;11.736;2023-04-03T09:55:19;2.40;;;1.83;;
12267;SDS011;6196;48.398;11.736;2023-04-03T09:57:58;3.43;;;2.37;;
12267;SDS011;6196;48.398;11.736;2023-04-03T10:00:33;2.43;;;2.07;;
12267;SDS011;6196;48.398;11.736;2023-04-03T10:03:04;3.53;;;1.87;;
12267;SDS011;6196;48.398;11.736;2023-04-03T10:05:36;2.27;;;1.87;;
12267;SDS011;6196;48.398;11.736;2023-04-03T10:08:28;4.00;;;1.67;;
12267;SDS011;6196;48.398;11.736;2023-04-03T10:11:06;3.33;;;2.20;;
12267;SDS011;6196;48.398;11.736;2023-04-03T10:14:00;3.38;;;2.08;;
12267;SDS011;6196;48.398;11.736;2023-04-03T10:24:51;4.53;;;1.80;;
12267;SDS011;6196;48.398;11.736;2023-04-03T10:28:01;2.93;;;1.57;;
12267;SDS011;6196;48.398;11.736;2023-04-03T10:39:28;2.60;;;1.90;;
12267;SDS011;6196;48.398;11.736;2023-04-03T10:50:29;3.37;;;2.20;;
12267;SDS011;6196;48.398;11.736;2023-04-03T10:59:05;2.40;;;1.93;;
12267;SDS011;6196;48.398;11.736;2023-04-03T11:02:00;4.13;;;2.20;;
12267;SDS011;6196;48.398;11.736;2023-04-03T11:04:34;4.60;;;2.13;;
12267;SDS011;6196;48.398;11.736;2023-04-03T11:07:10;2.57;;;1.73;;
12267;SDS011;6196;48.398;11.736;2023-04-03T11:09:46;3.50;;;1.87;;
12267;SDS011;6196;48.398;11.736;2023-04-03T11:15:15;2.70;;;1.70;;
12267;SDS011;6196;48.398;11.736;2023-04-03T11:20:21;2.00;;;1.67;;
12267;SDS011;6196;48.398;11.736;2023-04-03T11:23:08;2.37;;;1.67;;
12267;SDS011;6196;48.398;11.736;2023-04-03T11:25:48;2.53;;;1.60;;
12267;SDS011;6196;48.398;11.736;2023-04-03T11:28:19;2.43;;;1.40;;
12267;SDS011;6196;48.398;11.736;2023-04-03T11:39:22;3.30;;;1.50;;
12267;SDS011;6196;48.398;11.736;2023-04-03T11:42:15;3.47;;;1.60;;
12267;SDS011;6196;48.398;11.736;2023-04-03T11:44:49;2.17;;;1.47;;
12267;SDS011;6196;48.398;11.736;2023-04-03T12:05:53;2.20;;;1.57;;
12267;SDS011;6196;48.398;11.736;2023-04-03T12:19:30;2.13;;;1.57;;
12267;SDS011;6196;48.398;11.736;2023-04-03T12:22:13;2.63;;;1.63;;
12267;SDS011;6196;48.398;11.736;2023-04-03T12:24:44;3.00;;;1.80;;
12267;SDS011;6196;48.398;11.736;2023-04-03T12:27:33;4.73;;;1.90;;
12267;SDS011;6196;48.398;11.736;2023-04-03T12:30:12;3.03;;;1.60;;
12267;SDS011;6196;48.398;11.736;2023-04-03T12:38:32;3.57;;;1.53;;
12267;SDS011;6196;48.398;11.736;2023-04-03T12:41:42;2.07;;;1.40;;
12267;SDS011;6196;48.398;11.736;2023-04-03T12:47:28;2.73;;;1.40;;
12267;SDS011;6196;48.398;11.736;2023-04-03T12:50:03;1.87;;;1.33;;
12267;SDS011;6196;48.398;11.736;2023-04-03T12:52:44;2.43;;;1.50;;
12267;SDS011;6196;48.398;11.736;2023-04-03T12:55:17;2.03;;;1.30;;
12267;SDS011;6196;48.398;11.736;2023-04-03T12:57:46;2.37;;;1.63;;
12267;SDS011;6196;48.398;11.736;2023-04-03T13:00:22;3.20;;;1.40;;
12267;SDS011;6196;48.398;11.736;2023-04-03T13:03:00;3.90;;;1.60;;
12267;SDS011;6196;48.398;11.736;2023-04-03T13:05:31;1.80;;;1.30;;
12267;SDS011;6196;48.398;11.736;2023-04-03T13:08:03;1.73;;;1.50;;
12267;SDS011;6196;48.398;11.736;2023-04-03T13:10:45;2.67;;;1.20;;
12267;SDS011;6196;48.398;11.736;2023-04-03T13:13:25;1.67;;;1.07;;
12267;SDS011;6196;48.398;11.736;2023-04-03T13:15:53;3.60;;;1.20;;
12267;SDS011;6196;48.398;11.736;2023-04-03T13:18:22;14.63;;;11.60;;
12267;SDS011;6196;48.398;11.736;2023-04-03T13:21:11;2.27;;;1.50;;
12267;SDS011;6196;48.398;11.736;2023-04-03T13:23:45;2.87;;;1.23;;
12267;SDS011;6196;48.398;11.736;2023-04-03T13:26:27;2.07;;;1.20;;
12267;SDS011;6196;48.398;11.736;2023-04-03T13:28:59;1.53;;;1.20;;
12267;SDS011;6196;48.398;11.736;2023-04-03T13:31:36;2.60;;;1.37;;
12267;SDS011;6196;48.398;11.736;2023-04-03T13:34:10;1.43;;;1.10;;
12267;SDS011;6196;48.398;11.736;2023-04-03T13:36:55;2.10;;;1.10;;
12267;SDS011;6196;48.398;11.736;2023-04-03T13:39:27;1.97;;;1.20;;
12267;SDS011;6196;48.398;11.736;2023-04-03T13:41:56;1.70;;;1.20;;
12267;SDS011;6196;48.398;11.736;2023-04-03T13:44:32;1.50;;;1.07;;
12267;SDS011;6196;48.398;11.736;2023-04-03T13:55:52;3.70;;;1.50;;
12267;SDS011;6196;48.398;11.736;2023-04-03T13:58:28;2.50;;;1.20;;
12267;SDS011;6196;48.398;11.736;2023-04-03T14:03:56;1.83;;;1.10;;
12267;SDS011;6196;48.398;11.736;2023-04-03T14:06:27;2.03;;;1.17;;
12267;SDS011;6196;48.398;11.736;2023-04-03T14:08:55;1.30;;;0.93;;
12267;SDS011;6196;48.398;11.736;2023-04-03T14:11:23;2.30;;;1.30;;
12267;SDS011;6196;48.398;11.736;2023-04-03T14:13:55;1.53;;;1.20;;
12267;SDS011;6196;48.398;11.736;2023-04-03T14:16:28;1.97;;;1.20;;
12267;SDS011;6196;48.398;11.736;2023-04-03T14:18:57;1.57;;;1.20;;
12267;SDS011;6196;48.398;11.736;2023-04-03T14:21:24;2.37;;;1.50;;
12267;SDS011;6196;48.398;11.736;2023-04-03T14:23:52;2.27;;;1.37;;
12267;SDS011;6196;48.398;11.736;2023-04-03T14:26:23;1.63;;;0.90;;
12267;SDS011;6196;48.398;11.736;2023-04-03T14:28:53;1.30;;;1.17;;
12267;SDS011;6196;48.398;11.736;2023-04-03T14:31:21;2.87;;;1.50;;
12267;SDS011;6196;48.398;11.736;2023-04-03T14:33:49;3.23;;;1.30;;
12267;SDS011;6196;48.398;11.736;2023-04-03T14:36:18;2.00;;;1.43;;
12267;SDS011;6196;48.398;11.736;2023-04-03T14:38:49;1.67;;;1.30;;
12267;SDS011;6196;48.398;11.736;2023-04-03T14:41:18;1.93;;;1.20;;
12267;SDS011;6196;48.398;11.736;2023-04-03T14:43:48;2.20;;;1.40;;
12267;SDS011;6196;48.398;11.736;2023-04-03T14:46:17;2.93;;;1.20;;
12267;SDS011;6196;48.398;11.736;2023-04-03T14:48:52;3.00;;;1.50;;
12267;SDS011;6196;48.398;11.736;2023-04-03T14:51:19;3.40;;;1.43;;
12267;SDS011;6196;48.398;11.736;2023-04-03T14:53:47;2.80;;;1.40;;
12267;SDS011;6196;48.398;11.736;2023-04-03T14:56:19;1.20;;;1.10;;
12267;SDS011;6196;48.398;11.736;2023-04-03T14:58:54;3.20;;;1.40;;
12267;SDS011;6196;48.398;11.736;2023-04-03T15:01:27;2.40;;;1.40;;
12267;SDS011;6196;48.398;11.736;2023-04-03T15:03:54;3.93;;;2.07;;
12267;SDS011;6196;48.398;11.736;2023-04-03T15:06:21;5.93;;;4.03;;
12267;SDS011;6196;48.398;11.736;2023-04-03T15:08:48;5.23;;;3.73;;
12267;SDS011;6196;48.398;11.736;2023-04-03T15:11:15;4.03;;;2.77;;
12267;SDS011;6196;48.398;11.736;2023-04-03T15:13:42;3.33;;;2.00;;
12267;SDS011;6196;48.398;11.736;2023-04-03T15:16:16;2.50;;;2.00;;
12267;SDS011;6196;48.398;11.736;2023-04-03T15:18:45;3.97;;;1.90;;
12267;SDS011;6196;48.398;11.736;2023-04-03T15:21:13;2.10;;;1.50;;
12267;SDS011;6196;48.398;11.736;2023-04-03T15:23:40;2.87;;;1.60;;
12267;SDS011;6196;48.398;11.736;2023-04-03T15:26:08;2.73;;;1.40;;
12267;SDS011;6196;48.398;11.736;2023-04-03T15:28:44;1.73;;;1.30;;
12267;SDS011;6196;48.398;11.736;2023-04-03T15:31:11;1.70;;;1.60;;
12267;SDS011;6196;48.398;11.736;2023-04-03T15:33:38;2.80;;;1.50;;
12267;SDS011;6196;48.398;11.736;2023-04-03T15:36:05;2.40;;;1.70;;
12267;SDS011;6196;48.398;11.736;2023-04-03T15:38:52;3.20;;;1.93;;
12267;SDS011;6196;48.398;11.736;2023-04-03T15:41:19;1.93;;;1.50;;
12267;SDS011;6196;48.398;11.736;2023-04-03T15:43:47;1.63;;;1.40;;
12267;SDS011;6196;48.398;11.736;2023-04-03T15:46:13;1.70;;;1.27;;
12267;SDS011;6196;48.398;11.736;2023-04-03T15:48:42;4.27;;;1.63;;
12267;SDS011;6196;48.398;11.736;2023-04-03T15:51:09;1.90;;;1.40;;
12267;SDS011;6196;48.398;11.736;2023-04-03T15:53:36;2.67;;;1.80;;
12267;SDS011;6196;48.398;11.736;2023-04-03T15:56:03;1.97;;;1.20;;
12267;SDS011;6196;48.398;11.736;2023-04-03T15:58:30;2.23;;;1.30;;
12267;SDS011;6196;48.398;11.736;2023-04-03T16:00:57;2.00;;;1.47;;
12267;SDS011;6196;48.398;11.736;2023-04-03T16:03:24;2.37;;;1.67;;
12267;SDS011;6196;48.398;11.736;2023-04-03T16:05:51;2.83;;;1.60;;
12267;SDS011;6196;48.398;11.736;2023-04-03T16:08:18;1.50;;;1.40;;
12267;SDS011;6196;48.398;11.736;2023-04-03T16:10:46;2.33;;;1.30;;
12267;SDS011;6196;48.398;11.736;2023-04-03T16:13:13;2.67;;;1.50;;
12267;SDS011;6196;48.398;11.736;2023-04-03T16:15:40;1.73;;;1.40;;
12267;SDS011;6196;48.398;11.736;2023-04-03T16:18:08;1.97;;;1.70;;
12267;SDS011;6196;48.398;11.736;2023-04-03T16:20:36;2.83;;;1.47;;
12267;SDS011;6196;48.398;11.736;2023-04-03T16:23:03;2.83;;;1.60;;
12267;SDS011;6196;48.398;11.736;2023-04-03T16:25:31;2.33;;;1.40;;
12267;SDS011;6196;48.398;11.736;2023-04-03T16:27:57;3.30;;;1.47;;
12267;SDS011;6196;48.398;11.736;2023-04-03T16:30:24;2.27;;;1.60;;
12267;SDS011;6196;48.398;11.736;2023-04-03T16:32:52;5.57;;;1.37;;
12267;SDS011;6196;48.398;11.736;2023-04-03T16:35:19;3.70;;;1.60;;
12267;SDS011;6196;48.398;11.736;2023-04-03T16:37:46;1.93;;;1.40;;
12267;SDS011;6196;48.398;11.736;2023-04-03T16:40:13;2.17;;;1.87;;
12267;SDS011;6196;48.398;11.736;2023-04-03T16:42:40;3.17;;;1.60;;
12267;SDS011;6196;48.398;11.736;2023-04-03T16:45:09;2.43;;;1.70;;
12267;SDS011;6196;48.398;11.736;2023-04-03T16:47:36;2.80;;;1.60;;
12267;SDS011;6196;48.398;11.736;2023-04-03T16:50:03;2.60;;;1.80;;
12267;SDS011;6196;48.398;11.736;2023-04-03T16:52:31;2.03;;;1.37;;
12267;SDS011;6196;48.398;11.736;2023-04-03T16:54:57;2.13;;;1.33;;
12267;SDS011;6196;48.398;11.736;2023-04-03T16:57:25;2.10;;;1.77;;
12267;SDS011;6196;48.398;11.736;2023-04-03T16:59:52;3.10;;;1.80;;
12267;SDS011;6196;48.398;11.736;2023-04-03T17:02:20;2.70;;;1.70;;
12267;SDS011;6196;48.398;11.736;2023-04-03T17:04:53;4.57;;;2.13;;
12267;SDS011;6196;48.398;11.736;2023-04-03T17:07:21;3.17;;;1.83;;